Time,TemperatureF,DewpointF,PressureIn,WindDirection,WindDirectionDegrees,WindSpeedMPH,WindSpeedGustMPH,Humidity,HourlyPrecipIn,Conditions,Clouds,dailyrainin,SolarRadiationWatts/m^2,SoftwareType,DateUTC
2017-11-18 00:00:00,68.2,62.1,29.65,WSW,248,12.7,12.7,81,0.00,CLR,,0.00,0.0,WeatherDisplay:10.37,2017-11-18 06:00:00,
2017-11-18 00:05:00,68.4,62.3,29.65,SE,135,17.3,17.3,81,0.00,CLR,,0.00,0.0,WeatherDisplay:10.37,2017-11-18 06:05:00,
2017-11-18 00:10:00,68.2,62.1,29.65,SSE,158,8.1,8.1,81,0.00,CLR,,0.00,0.0,WeatherDisplay:10.37,2017-11-18 06:10:00,
2017-11-18 00:15:00,68.2,62.1,29.65,SE,135,15.0,15.0,81,0.00,CLR,,0.00,0.0,WeatherDisplay:10.37,2017-11-18 06:15:00,
2017-11-18 00:20:00,68.2,62.1,29.62,SE,135,10.0,10.0,81,0.00,CLR,,0.00,0.0,WeatherDisplay:10.37,2017-11-18 06:20:00,
2017-11-18 00:25:00,68.2,62.1,29.62,SSE,158,12.7,12.7,81,0.00,CLR,,0.00,0.0,WeatherDisplay:10.37,2017-11-18 06:25:00,
2017-11-18 00:30:00,68.2,62.1,29.62,South,180,17.3,17.3,81,0.00,CLR,,0.00,0.0,WeatherDisplay:10.37,2017-11-18 06:30:00,
2017-11-18 00:35:00,68.2,62.1,29.62,SSE,158,8.3,8.3,81,0.00,CLR,,0.00,0.0,WeatherDisplay:10.37,2017-11-18 06:35:00,
2017-11-18 00:40:00,68.2,62.1,29.62,SSE,158,16.3,16.3,81,0.00,CLR,,0.00,0.0,WeatherDisplay:10.37,2017-11-18 06:40:00,
2017-11-18 00:45:00,68.4,62.3,29.62,SSE,158,8.1,8.1,81,0.00,CLR,,0.00,0.0,WeatherDisplay:10.37,2017-11-18 06:45:00,
2017-11-18 00:50:00,68.4,62.3,29.62,NE,45,10.4,10.4,81,0.00,CLR,,0.00,0.0,WeatherDisplay:10.37,2017-11-18 06:50:00,
2017-11-18 00:55:00,68.2,62.1,29.62,South,180,10.0,10.0,81,0.00,CLR,,0.00,0.0,WeatherDisplay:10.37,2017-11-18 06:55:00,
2017-11-18 01:00:00,68.2,62.1,29.62,SSE,158,7.6,7.6,81,0.00,CLR,,0.00,0.0,WeatherDisplay:10.37,2017-11-18 07:00:00,
2017-11-18 01:05:00,68.2,62.1,29.62,South,180,10.4,10.4,81,0.00,CLR,,0.00,0.0,WeatherDisplay:10.37,2017-11-18 07:05:00,
2017-11-18 01:10:00,68.0,61.9,29.62,South,180,9.2,9.2,81,0.00,CLR,,0.00,0.0,WeatherDisplay:10.37,2017-11-18 07:10:00,
2017-11-18 01:15:00,68.2,62.1,29.62,SSE,158,10.4,10.4,81,0.00,CLR,,0.00,0.0,WeatherDisplay:10.37,2017-11-18 07:15:00,
2017-11-18 01:20:00,68.4,61.9,29.62,SE,135,8.1,8.1,80,0.00,CLR,,0.00,0.0,WeatherDisplay:10.37,2017-11-18 07:20:00,
2017-11-18 01:21:00,68.4,61.9,29.62,SSW,202,8.1,8.1,80,0.00,CLR,,0.00,0.0,WeatherDisplay:10.37,2017-11-18 07:21:00,
2017-11-18 01:26:00,68.4,61.9,29.62,SSE,158,5.8,5.8,80,0.00,CLR,,0.00,0.0,WeatherDisplay:10.37,2017-11-18 07:26:00,
2017-11-18 01:31:00,68.4,61.9,29.62,SSW,202,10.4,10.4,80,0.00,CLR,,0.00,0.0,WeatherDisplay:10.37,2017-11-18 07:31:00,
2017-11-18 01:36:00,68.5,62.1,29.62,SSW,202,12.8,12.8,80,0.00,CLR,,0.00,0.0,WeatherDisplay:10.37,2017-11-18 07:36:00,
2017-11-18 01:41:00,68.5,61.8,29.62,South,180,9.2,9.2,79,0.00,CLR,,0.00,0.0,WeatherDisplay:10.37,2017-11-18 07:41:00,
2017-11-18 01:46:00,68.5,61.8,29.62,SSW,202,8.1,8.1,79,0.00,CLR,,0.00,0.0,WeatherDisplay:10.37,2017-11-18 07:46:00,
2017-11-18 01:51:00,68.7,61.9,29.62,South,180,10.4,10.4,79,0.00,CLR,,0.00,0.0,WeatherDisplay:10.37,2017-11-18 07:51:00,
2017-11-18 01:56:00,68.7,61.9,29.62,South,180,9.2,9.2,79,0.00,CLR,,0.00,0.0,WeatherDisplay:10.37,2017-11-18 07:56:00,
2017-11-18 02:01:00,68.7,61.6,29.62,South,180,10.4,10.4,78,0.00,CLR,,0.00,0.0,WeatherDisplay:10.37,2017-11-18 08:01:00,
2017-11-18 02:06:00,68.9,61.8,29.62,ESE,112,8.3,8.3,78,0.00,CLR,,0.00,0.0,WeatherDisplay:10.37,2017-11-18 08:06:00,
2017-11-18 02:11:00,68.9,61.8,29.62,South,180,8.1,8.1,78,0.00,CLR,,0.00,0.0,WeatherDisplay:10.37,2017-11-18 08:11:00,
2017-11-18 02:16:00,68.7,61.6,29.62,East,90,9.2,9.2,78,0.00,CLR,,0.00,0.0,WeatherDisplay:10.37,2017-11-18 08:16:00,
2017-11-18 02:21:00,68.7,61.6,29.59,South,180,10.4,10.4,78,0.00,CLR,,0.00,0.0,WeatherDisplay:10.37,2017-11-18 08:21:00,
2017-11-18 02:26:00,68.7,61.6,29.59,SSW,202,10.4,10.4,78,0.00,CLR,,0.00,0.0,WeatherDisplay:10.37,2017-11-18 08:26:00,
2017-11-18 02:31:00,68.7,61.6,29.59,South,180,11.5,11.5,78,0.00,CLR,,0.00,0.0,WeatherDisplay:10.37,2017-11-18 08:31:00,
2017-11-18 02:36:00,68.7,61.6,29.59,SW,225,12.7,12.7,78,0.00,CLR,,0.00,0.0,WeatherDisplay:10.37,2017-11-18 08:36:00,
2017-11-18 02:41:00,68.7,61.6,29.59,SSE,158,10.4,10.9,78,0.00,CLR,,0.00,0.0,WeatherDisplay:10.37,2017-11-18 08:41:00,
2017-11-18 02:46:00,68.7,61.6,29.59,SW,225,10.4,10.4,78,0.00,CLR,,0.00,0.0,WeatherDisplay:10.37,2017-11-18 08:46:00,
2017-11-18 02:51:00,68.7,61.2,29.59,South,180,12.7,12.7,77,0.00,CLR,,0.00,0.0,WeatherDisplay:10.37,2017-11-18 08:51:00,
2017-11-18 02:56:00,68.7,61.2,29.59,SSW,202,10.4,10.4,77,0.00,CLR,,0.00,0.0,WeatherDisplay:10.37,2017-11-18 08:56:00,
2017-11-18 03:01:00,68.7,61.2,29.59,SSW,202,8.1,8.1,77,0.00,CLR,,0.00,0.0,WeatherDisplay:10.37,2017-11-18 09:01:00,
2017-11-18 03:06:00,68.7,61.2,29.59,SW,225,11.5,11.5,77,0.00,CLR,,0.00,0.0,WeatherDisplay:10.37,2017-11-18 09:06:00,
2017-11-18 03:11:00,68.7,61.2,29.59,SSW,202,11.5,11.5,77,0.00,CLR,,0.00,0.0,WeatherDisplay:10.37,2017-11-18 09:11:00,
2017-11-18 03:16:00,68.5,61.0,29.59,SE,135,8.1,8.1,77,0.00,CLR,,0.00,0.0,WeatherDisplay:10.37,2017-11-18 09:16:00,
2017-11-18 03:21:00,68.5,61.0,29.59,South,180,8.1,8.1,77,0.00,CLR,,0.00,0.0,WeatherDisplay:10.37,2017-11-18 09:21:00,
2017-11-18 03:26:00,68.7,60.8,29.59,South,180,9.2,9.2,76,0.00,CLR,,0.00,0.0,WeatherDisplay:10.37,2017-11-18 09:26:00,
2017-11-18 03:31:00,68.5,60.7,29.59,South,180,10.4,10.4,76,0.00,CLR,,0.00,0.0,WeatherDisplay:10.37,2017-11-18 09:31:00,
2017-11-18 03:36:00,68.7,60.8,29.59,South,180,8.1,8.1,76,0.00,CLR,,0.00,0.0,WeatherDisplay:10.37,2017-11-18 09:36:00,
2017-11-18 03:41:00,68.7,60.8,29.59,SSE,158,9.2,9.2,76,0.00,CLR,,0.00,0.0,WeatherDisplay:10.37,2017-11-18 09:41:00,
2017-11-18 03:46:00,68.7,60.8,29.59,WSW,248,9.2,9.2,76,0.00,CLR,,0.00,0.0,WeatherDisplay:10.37,2017-11-18 09:46:00,
2017-11-18 03:51:00,68.7,60.5,29.59,SW,225,11.5,11.5,75,0.00,CLR,,0.00,0.0,WeatherDisplay:10.37,2017-11-18 09:51:00,
2017-11-18 03:56:00,68.7,60.5,29.59,SSW,202,9.2,9.2,75,0.00,CLR,,0.00,0.0,WeatherDisplay:10.37,2017-11-18 09:56:00,
2017-11-18 04:01:00,69.1,60.1,29.59,SSE,158,15.0,15.0,73,0.00,CLR,,0.00,0.0,WeatherDisplay:10.37,2017-11-18 10:01:00,
2017-11-18 04:06:00,69.3,60.2,29.56,SSW,202,15.0,15.0,73,0.00,CLR,,0.00,0.0,WeatherDisplay:10.37,2017-11-18 10:06:00,
2017-11-18 04:11:00,69.4,60.0,29.56,South,180,11.8,11.8,72,0.00,CLR,,0.00,0.0,WeatherDisplay:10.37,2017-11-18 10:11:00,
2017-11-18 04:16:00,69.4,60.0,29.56,SSE,158,11.5,11.5,72,0.00,CLR,,0.00,0.0,WeatherDisplay:10.37,2017-11-18 10:16:00,
2017-11-18 04:21:00,69.4,60.0,29.59,SSW,202,11.5,11.5,72,0.00,CLR,,0.00,0.0,WeatherDisplay:10.37,2017-11-18 10:21:00,
2017-11-18 04:26:00,69.3,59.8,29.59,SSW,202,15.0,15.0,72,0.00,CLR,,0.00,0.0,WeatherDisplay:10.37,2017-11-18 10:26:00,
2017-11-18 04:31:00,69.4,60.0,29.59,South,180,10.5,10.5,72,0.00,CLR,,0.00,0.0,WeatherDisplay:10.37,2017-11-18 10:31:00,
2017-11-18 04:36:00,69.4,59.6,29.59,SSW,202,10.4,10.4,71,0.00,CLR,,0.00,0.0,WeatherDisplay:10.37,2017-11-18 10:36:00,
2017-11-18 04:41:00,69.4,59.6,29.59,South,180,9.2,9.2,71,0.00,CLR,,0.00,0.0,WeatherDisplay:10.37,2017-11-18 10:41:00,
2017-11-18 04:46:00,69.4,59.6,29.59,SSE,158,8.1,8.1,71,0.00,CLR,,0.00,0.0,WeatherDisplay:10.37,2017-11-18 10:46:00,
2017-11-18 04:51:00,69.4,59.6,29.59,SE,135,9.2,9.2,71,0.00,CLR,,0.00,0.0,WeatherDisplay:10.37,2017-11-18 10:51:00,
2017-11-18 04:56:00,69.4,59.6,29.59,SSW,202,8.1,8.1,71,0.00,CLR,,0.00,0.0,WeatherDisplay:10.37,2017-11-18 10:56:00,
2017-11-18 05:01:00,69.4,59.2,29.59,SSW,202,11.5,11.5,70,0.00,CLR,,0.00,0.0,WeatherDisplay:10.37,2017-11-18 11:01:00,
2017-11-18 05:06:00,69.4,59.2,29.59,SW,225,11.8,11.8,70,0.00,CLR,,0.00,0.0,WeatherDisplay:10.37,2017-11-18 11:06:00,
2017-11-18 05:11:00,69.6,59.4,29.59,South,180,10.5,10.5,70,0.00,CLR,,0.00,0.0,WeatherDisplay:10.37,2017-11-18 11:11:00,
2017-11-18 05:16:00,69.6,59.0,29.59,SSW,202,13.8,13.8,69,0.00,CLR,,0.00,0.0,WeatherDisplay:10.37,2017-11-18 11:16:00,
2017-11-18 05:21:00,69.8,58.8,29.59,SSW,202,9.2,9.2,68,0.00,CLR,,0.00,0.0,WeatherDisplay:10.37,2017-11-18 11:21:00,
2017-11-18 05:26:00,69.8,58.8,29.59,South,180,10.4,10.4,68,0.00,CLR,,0.00,0.0,WeatherDisplay:10.37,2017-11-18 11:26:00,
2017-11-18 05:31:00,69.6,58.6,29.59,SSW,202,13.8,13.8,68,0.00,CLR,,0.00,0.0,WeatherDisplay:10.37,2017-11-18 11:31:00,
2017-11-18 05:36:00,69.8,58.8,29.59,SW,225,10.4,10.4,68,0.00,CLR,,0.00,0.0,WeatherDisplay:10.37,2017-11-18 11:36:00,
2017-11-18 05:41:00,69.8,58.3,29.59,SSW,202,11.5,11.5,67,0.00,CLR,,0.00,0.0,WeatherDisplay:10.37,2017-11-18 11:41:00,
2017-11-18 05:46:00,69.6,58.6,29.59,SW,225,8.1,8.1,68,0.00,CLR,,0.00,0.0,WeatherDisplay:10.37,2017-11-18 11:46:00,
2017-11-18 05:51:00,69.6,58.6,29.59,SSW,202,8.1,8.1,68,0.00,CLR,,0.00,0.0,WeatherDisplay:10.37,2017-11-18 11:51:00,
2017-11-18 05:56:00,69.4,58.4,29.59,South,180,11.5,11.5,68,0.00,CLR,,0.00,0.0,WeatherDisplay:10.37,2017-11-18 11:56:00,
2017-11-18 06:01:00,69.4,58.4,29.59,SSW,202,14.5,14.5,68,0.00,CLR,,0.00,0.0,WeatherDisplay:10.37,2017-11-18 12:01:00,
2017-11-18 06:06:00,69.4,58.0,29.59,SSW,202,13.8,13.8,67,0.00,CLR,,0.00,0.0,WeatherDisplay:10.37,2017-11-18 12:06:00,
2017-11-18 06:11:00,69.4,58.0,29.59,SSW,202,10.5,10.5,67,0.00,CLR,,0.00,0.0,WeatherDisplay:10.37,2017-11-18 12:11:00,
2017-11-18 06:16:00,69.4,58.0,29.59,SSW,202,11.5,12.3,67,0.00,CLR,,0.00,0.0,WeatherDisplay:10.37,2017-11-18 12:16:00,
2017-11-18 06:21:00,69.4,58.0,29.59,SW,225,11.5,11.5,67,0.00,CLR,,0.00,0.0,WeatherDisplay:10.37,2017-11-18 12:21:00,
2017-11-18 06:26:00,69.3,57.8,29.59,SSW,202,9.2,9.2,67,0.00,CLR,,0.00,0.0,WeatherDisplay:10.37,2017-11-18 12:26:00,
2017-11-18 06:31:00,69.1,57.7,29.59,SW,225,10.0,10.0,67,0.00,CLR,,0.00,0.0,WeatherDisplay:10.37,2017-11-18 12:31:00,
2017-11-18 06:36:00,69.1,57.7,29.59,SW,225,10.4,10.4,67,0.00,CLR,,0.00,0.0,WeatherDisplay:10.37,2017-11-18 12:36:00,
2017-11-18 06:41:00,69.1,57.2,29.59,SW,225,8.1,8.1,66,0.00,CLR,,0.00,0.0,WeatherDisplay:10.37,2017-11-18 12:41:00,
2017-11-18 06:46:00,69.1,56.8,29.59,West,270,10.4,10.4,65,0.00,CLR,,0.00,0.0,WeatherDisplay:10.37,2017-11-18 12:46:00,
2017-11-18 06:51:00,69.1,57.2,29.59,SSW,202,11.5,11.5,66,0.00,CLR,,0.00,0.0,WeatherDisplay:10.37,2017-11-18 12:51:00,
2017-11-18 06:56:00,69.1,56.8,29.59,SW,225,11.5,11.5,65,0.00,CLR,,0.00,0.0,WeatherDisplay:10.37,2017-11-18 12:56:00,
2017-11-18 07:01:00,68.9,56.6,29.59,WSW,248,10.4,10.4,65,0.00,CLR,,0.00,0.0,WeatherDisplay:10.37,2017-11-18 13:01:00,
2017-11-18 07:06:00,68.9,54.0,29.62,WSW,248,30.1,30.1,59,0.00,CLR,,0.00,0.0,WeatherDisplay:10.37,2017-11-18 13:06:00,
2017-11-18 07:11:00,64.8,45.7,29.62,WSW,248,20.7,20.7,50,0.00,CLR,,0.00,0.0,WeatherDisplay:10.37,2017-11-18 13:11:00,
2017-11-18 07:16:00,62.2,46.3,29.62,West,270,15.0,15.0,56,0.00,CLR,,0.00,0.0,WeatherDisplay:10.37,2017-11-18 13:16:00,
2017-11-18 07:21:00,60.4,47.8,29.65,WNW,292,11.5,11.5,63,0.00,CLR,,0.00,0.0,WeatherDisplay:10.37,2017-11-18 13:21:00,
2017-11-18 07:23:00,60.3,47.6,29.65,WNW,292,15.0,15.0,63,0.00,CLR,,0.00,0.0,WeatherDisplay:10.37,2017-11-18 13:23:00,
2017-11-18 07:28:00,59.7,48.3,29.65,NW,315,11.5,11.5,66,0.00,CLR,,0.00,0.0,WeatherDisplay:10.37,2017-11-18 13:28:00,
2017-11-18 07:33:00,58.8,49.1,29.68,WSW,248,17.3,17.3,70,0.00,CLR,,0.00,0.0,WeatherDisplay:10.37,2017-11-18 13:33:00,
2017-11-18 07:38:00,57.7,49.5,29.68,West,270,20.1,20.1,74,0.00,CLR,,0.00,0.0,WeatherDisplay:10.37,2017-11-18 13:38:00,
2017-11-18 07:43:00,57.2,50.1,29.68,West,270,13.8,13.8,77,0.00,CLR,,0.00,0.0,WeatherDisplay:10.37,2017-11-18 13:43:00,
2017-11-18 07:48:00,57.0,50.6,29.68,West,270,13.8,13.8,79,0.00,CLR,,0.00,0.0,WeatherDisplay:10.37,2017-11-18 13:48:00,
2017-11-18 07:53:00,57.0,50.9,29.68,WNW,292,19.6,19.6,80,0.00,CLR,,0.00,0.0,WeatherDisplay:10.37,2017-11-18 13:53:00,
2017-11-18 07:58:00,56.8,50.7,29.68,WSW,248,14.0,14.0,80,0.00,CLR,,0.00,0.0,WeatherDisplay:10.37,2017-11-18 13:58:00,
2017-11-18 08:03:00,56.5,50.7,29.71,West,270,15.0,15.0,81,0.00,CLR,,0.00,0.0,WeatherDisplay:10.37,2017-11-18 14:03:00,
2017-11-18 08:08:00,56.3,50.5,29.71,WNW,292,17.0,17.0,81,0.00,CLR,,0.00,0.0,WeatherDisplay:10.37,2017-11-18 14:08:00,
2017-11-18 08:13:00,55.8,50.3,29.71,WNW,292,10.4,10.4,82,0.00,CLR,,0.00,0.0,WeatherDisplay:10.37,2017-11-18 14:13:00,
2017-11-18 08:18:00,55.0,50.3,29.74,West,270,20.7,20.7,84,0.00,CLR,,0.00,0.0,WeatherDisplay:10.37,2017-11-18 14:18:00,
2017-11-18 08:23:00,54.7,50.3,29.74,WNW,292,23.2,23.2,85,0.00,CLR,,0.00,0.0,WeatherDisplay:10.37,2017-11-18 14:23:00,
2017-11-18 08:28:00,54.3,50.5,29.74,WNW,292,21.0,21.0,87,0.00,CLR,,0.00,0.0,WeatherDisplay:10.37,2017-11-18 14:28:00,
2017-11-18 08:33:00,54.0,50.8,29.77,West,270,23.0,23.0,89,0.00,CLR,,0.00,0.0,WeatherDisplay:10.37,2017-11-18 14:33:00,
2017-11-18 08:38:00,53.8,51.2,29.77,West,270,17.3,17.3,91,0.00,CLR,,0.00,0.0,WeatherDisplay:10.37,2017-11-18 14:38:00,
2017-11-18 08:43:00,53.2,51.0,29.77,NW,315,17.3,17.3,92,0.00,CLR,,0.00,0.0,WeatherDisplay:10.37,2017-11-18 14:43:00,
2017-11-18 08:48:00,53.1,51.1,29.77,West,270,15.0,15.0,93,0.00,CLR,,0.00,0.0,WeatherDisplay:10.37,2017-11-18 14:48:00,
2017-11-18 08:53:00,52.7,51.0,29.77,NW,315,17.3,17.3,94,0.00,CLR,,0.00,0.0,WeatherDisplay:10.37,2017-11-18 14:53:00,
2017-11-18 08:58:00,52.5,51.1,29.77,West,270,21.9,21.9,95,0.00,CLR,,0.00,0.0,WeatherDisplay:10.37,2017-11-18 14:58:00,
2017-11-18 09:03:00,52.5,51.1,29.77,West,270,15.0,15.0,95,0.00,CLR,,0.00,0.0,WeatherDisplay:10.37,2017-11-18 15:03:00,
2017-11-18 09:08:00,52.2,50.8,29.77,NW,315,10.4,10.4,95,0.00,CLR,,0.00,0.0,WeatherDisplay:10.37,2017-11-18 15:08:00,
2017-11-18 09:13:00,52.0,50.9,29.77,West,270,17.8,17.8,96,0.00,CLR,,0.00,0.0,WeatherDisplay:10.37,2017-11-18 15:13:00,
2017-11-18 09:18:00,51.8,50.7,29.80,WNW,292,15.4,15.4,96,0.00,CLR,,0.00,0.0,WeatherDisplay:10.37,2017-11-18 15:18:00,
2017-11-18 09:23:00,51.4,50.3,29.80,NW,315,20.7,20.7,96,0.00,CLR,,0.00,0.0,WeatherDisplay:10.37,2017-11-18 15:23:00,
2017-11-18 09:28:00,51.1,49.7,29.80,WNW,292,19.6,19.6,95,0.00,CLR,,0.00,0.0,WeatherDisplay:10.37,2017-11-18 15:28:00,
2017-11-18 09:33:00,50.7,49.1,29.80,West,270,18.7,18.7,94,0.00,CLR,,0.00,0.0,WeatherDisplay:10.37,2017-11-18 15:33:00,
2017-11-18 09:38:00,50.5,48.9,29.80,WNW,292,15.0,15.0,94,0.00,CLR,,0.00,0.0,WeatherDisplay:10.37,2017-11-18 15:38:00,
2017-11-18 09:43:00,50.2,48.5,29.80,West,270,25.3,25.3,94,0.00,CLR,,0.00,0.0,WeatherDisplay:10.37,2017-11-18 15:43:00,
2017-11-18 09:48:00,49.8,48.4,29.83,West,270,23.0,23.0,95,0.00,CLR,,0.00,0.0,WeatherDisplay:10.37,2017-11-18 15:48:00,
2017-11-18 09:53:00,49.1,47.7,29.83,West,270,17.3,17.3,95,0.00,CLR,,0.00,0.0,WeatherDisplay:10.37,2017-11-18 15:53:00,
2017-11-18 09:58:00,48.9,47.8,29.83,NW,315,19.7,19.7,96,0.00,CLR,,0.00,0.0,WeatherDisplay:10.37,2017-11-18 15:58:00,
2017-11-18 10:03:00,48.7,47.1,29.85,WSW,248,17.3,17.3,94,0.00,CLR,,0.00,0.0,WeatherDisplay:10.37,2017-11-18 16:03:00,
2017-11-18 10:08:00,48.6,46.3,29.85,West,270,17.3,17.3,92,0.00,CLR,,0.00,0.0,WeatherDisplay:10.37,2017-11-18 16:08:00,
2017-11-18 10:13:00,48.4,45.9,29.85,WNW,292,15.0,15.0,91,0.00,CLR,,0.00,0.0,WeatherDisplay:10.37,2017-11-18 16:13:00,
2017-11-18 10:18:00,48.2,46.0,29.85,NW,315,9.2,9.2,92,0.00,CLR,,0.00,0.0,WeatherDisplay:10.37,2017-11-18 16:18:00,
2017-11-18 10:23:00,48.2,46.3,29.85,West,270,9.2,9.2,93,0.00,CLR,,0.00,0.0,WeatherDisplay:10.37,2017-11-18 16:23:00,
2017-11-18 10:28:00,48.2,46.6,29.85,West,270,8.1,8.1,94,0.00,CLR,,0.00,0.0,WeatherDisplay:10.37,2017-11-18 16:28:00,
2017-11-18 10:33:00,48.2,46.6,29.88,WNW,292,15.0,15.0,94,0.00,CLR,,0.00,0.0,WeatherDisplay:10.37,2017-11-18 16:33:00,
2017-11-18 10:38:00,47.8,46.5,29.88,WNW,292,11.5,11.5,95,0.00,CLR,,0.00,0.0,WeatherDisplay:10.37,2017-11-18 16:38:00,
2017-11-18 10:43:00,47.8,46.5,29.88,West,270,15.0,15.0,95,0.00,CLR,,0.00,0.0,WeatherDisplay:10.37,2017-11-18 16:43:00,
2017-11-18 10:48:00,47.8,46.5,29.88,West,270,19.6,19.6,95,0.00,CLR,,0.00,0.0,WeatherDisplay:10.37,2017-11-18 16:48:00,
2017-11-18 10:53:00,47.7,46.3,29.91,West,270,17.3,17.3,95,0.00,CLR,,0.00,0.0,WeatherDisplay:10.37,2017-11-18 16:53:00,
2017-11-18 10:58:00,47.3,44.5,29.91,West,270,27.6,27.6,90,0.00,CLR,,0.00,0.0,WeatherDisplay:10.37,2017-11-18 16:58:00,
2017-11-18 11:03:00,47.3,43.6,29.91,NW,315,18.4,18.4,87,0.00,CLR,,0.00,0.0,WeatherDisplay:10.37,2017-11-18 17:03:00,
2017-11-18 11:08:00,47.1,43.1,29.91,NW,315,23.0,23.0,86,0.00,CLR,,0.00,0.0,WeatherDisplay:10.37,2017-11-18 17:08:00,
2017-11-18 11:13:00,47.3,43.3,29.91,NW,315,20.7,20.7,86,0.00,CLR,,0.00,0.0,WeatherDisplay:10.37,2017-11-18 17:13:00,
2017-11-18 11:18:00,47.1,41.6,29.91,WNW,292,19.6,19.6,81,0.00,CLR,,0.00,0.0,WeatherDisplay:10.37,2017-11-18 17:18:00,
2017-11-18 11:23:00,46.9,41.1,29.91,West,270,18.3,18.3,80,0.00,CLR,,0.00,0.0,WeatherDisplay:10.37,2017-11-18 17:23:00,
2017-11-18 11:28:00,46.9,40.8,29.91,NW,315,15.4,15.4,79,0.00,CLR,,0.00,0.0,WeatherDisplay:10.37,2017-11-18 17:28:00,
2017-11-18 11:29:00,46.9,40.8,29.91,WNW,292,15.0,15.0,79,0.00,CLR,,0.00,0.0,WeatherDisplay:10.37,2017-11-18 17:29:00,
2017-11-18 11:34:00,46.9,40.4,29.94,West,270,16.3,16.3,78,0.00,CLR,,0.00,0.0,WeatherDisplay:10.37,2017-11-18 17:34:00,
2017-11-18 11:39:00,46.6,40.4,29.94,West,270,25.3,25.3,79,0.00,CLR,,0.00,0.0,WeatherDisplay:10.37,2017-11-18 17:39:00,
2017-11-18 11:44:00,46.0,41.5,29.94,WNW,292,17.8,17.8,84,0.00,CLR,,0.00,0.0,WeatherDisplay:10.37,2017-11-18 17:44:00,
2017-11-18 11:49:00,45.5,41.9,29.97,West,270,18.4,18.4,87,0.00,CLR,,0.00,0.0,WeatherDisplay:10.37,2017-11-18 17:49:00,
2017-11-18 11:54:00,45.5,42.4,29.97,West,270,8.1,8.1,89,0.00,CLR,,0.00,0.0,WeatherDisplay:10.37,2017-11-18 17:54:00,
2017-11-18 11:59:00,45.1,42.7,29.97,West,270,28.8,28.8,91,0.00,CLR,,0.00,0.0,WeatherDisplay:10.37,2017-11-18 17:59:00,
2017-11-18 12:04:00,45.0,42.5,29.97,West,270,21.9,21.9,91,0.00,CLR,,0.00,0.0,WeatherDisplay:10.37,2017-11-18 18:04:00,
2017-11-18 12:09:00,44.8,42.3,29.97,NW,315,18.4,18.4,91,0.00,CLR,,0.00,0.0,WeatherDisplay:10.37,2017-11-18 18:09:00,
2017-11-18 12:14:00,44.6,42.1,29.97,West,270,15.0,15.9,91,0.00,CLR,,0.00,0.0,WeatherDisplay:10.37,2017-11-18 18:14:00,
2017-11-18 12:19:00,44.8,42.3,29.97,West,270,17.3,17.3,91,0.00,CLR,,0.00,0.0,WeatherDisplay:10.37,2017-11-18 18:19:00,
2017-11-18 12:24:00,45.7,43.5,29.97,NW,315,13.8,13.8,92,0.00,CLR,,0.00,0.0,WeatherDisplay:10.37,2017-11-18 18:24:00,
2017-11-18 12:29:00,45.5,43.3,29.97,West,270,11.5,11.5,92,0.00,CLR,,0.00,0.0,WeatherDisplay:10.37,2017-11-18 18:29:00,
2017-11-18 12:34:00,45.1,42.7,29.97,West,270,17.3,17.3,91,0.00,CLR,,0.00,0.0,WeatherDisplay:10.37,2017-11-18 18:34:00,
2017-11-18 12:39:00,45.0,42.2,29.97,West,270,12.7,12.7,90,0.00,CLR,,0.00,0.0,WeatherDisplay:10.37,2017-11-18 18:39:00,
2017-11-18 12:44:00,45.1,42.1,29.97,WNW,292,19.6,19.6,89,0.04,RA,,0.04,0.0,WeatherDisplay:10.37,2017-11-18 18:44:00,
2017-11-18 12:49:00,45.1,41.8,29.97,WNW,292,12.7,12.7,88,0.04,RA,,0.04,0.0,WeatherDisplay:10.37,2017-11-18 18:49:00,
2017-11-18 12:54:00,45.3,42.3,29.97,NNW,338,21.9,21.9,89,0.04,,,0.04,0.0,WeatherDisplay:10.37,2017-11-18 18:54:00,
2017-11-18 12:59:00,45.3,41.7,29.97,NNW,338,12.7,12.7,87,0.04,,,0.04,0.0,WeatherDisplay:10.37,2017-11-18 18:59:00,
2017-11-18 13:04:00,45.3,41.7,30.00,WNW,292,12.7,12.7,87,0.04,,,0.04,0.0,WeatherDisplay:10.37,2017-11-18 19:04:00,
2017-11-18 13:09:00,45.3,41.7,30.00,West,270,10.4,10.4,87,0.04,,,0.04,0.0,WeatherDisplay:10.37,2017-11-18 19:09:00,
2017-11-18 13:14:00,45.1,41.5,30.00,WNW,292,14.5,14.5,87,0.04,,,0.04,0.0,WeatherDisplay:10.37,2017-11-18 19:14:00,
2017-11-18 13:19:00,45.5,41.3,30.00,West,270,11.5,11.5,85,0.04,,,0.04,0.0,WeatherDisplay:10.37,2017-11-18 19:19:00,
2017-11-18 13:24:00,45.3,40.5,30.00,WNW,292,24.2,24.2,83,0.04,,,0.04,0.0,WeatherDisplay:10.37,2017-11-18 19:24:00,
2017-11-18 13:29:00,44.8,39.6,30.00,West,270,25.3,25.3,82,0.04,,,0.04,0.0,WeatherDisplay:10.37,2017-11-18 19:29:00,
2017-11-18 13:34:00,45.0,40.4,30.03,West,270,12.7,12.7,84,0.04,,,0.04,0.0,WeatherDisplay:10.37,2017-11-18 19:34:00,
2017-11-18 13:39:00,44.8,40.2,30.03,West,270,15.0,15.0,84,0.04,,,0.04,0.0,WeatherDisplay:10.37,2017-11-18 19:39:00,
2017-11-18 13:44:00,44.6,39.8,30.03,WSW,248,14.5,14.5,83,0.00,CLR,,0.04,0.0,WeatherDisplay:10.37,2017-11-18 19:44:00,
2017-11-18 13:49:00,44.6,39.1,30.03,West,270,19.6,19.6,81,0.00,CLR,,0.04,0.0,WeatherDisplay:10.37,2017-11-18 19:49:00,
2017-11-18 13:54:00,44.6,39.1,30.03,West,270,26.5,26.5,81,0.00,CLR,,0.04,0.0,WeatherDisplay:10.37,2017-11-18 19:54:00,
2017-11-18 13:59:00,45.0,39.2,30.03,NNW,338,12.7,12.7,80,0.00,CLR,,0.04,0.0,WeatherDisplay:10.37,2017-11-18 19:59:00,
2017-11-18 14:04:00,45.1,38.4,30.03,West,270,17.3,17.3,77,0.00,CLR,,0.04,0.0,WeatherDisplay:10.37,2017-11-18 20:04:00,
2017-11-18 14:09:00,45.3,38.2,30.03,West,270,25.5,25.5,76,0.00,CLR,,0.04,0.0,WeatherDisplay:10.37,2017-11-18 20:09:00,
2017-11-18 14:14:00,45.9,36.6,30.03,WNW,292,15.0,15.0,70,0.00,CLR,,0.04,0.0,WeatherDisplay:10.37,2017-11-18 20:14:00,
2017-11-18 14:19:00,46.4,36.8,30.06,WNW,292,10.4,10.4,69,0.00,CLR,,0.04,0.0,WeatherDisplay:10.37,2017-11-18 20:19:00,
2017-11-18 14:24:00,46.4,36.8,30.06,NW,315,11.5,11.5,69,0.00,CLR,,0.04,0.0,WeatherDisplay:10.37,2017-11-18 20:24:00,
2017-11-18 14:29:00,46.0,36.1,30.06,WSW,248,14.5,14.5,68,0.00,CLR,,0.04,0.0,WeatherDisplay:10.37,2017-11-18 20:29:00,
2017-11-18 14:34:00,45.1,36.3,30.06,WNW,292,22.3,22.3,71,0.00,CLR,,0.04,0.0,WeatherDisplay:10.37,2017-11-18 20:34:00,
2017-11-18 14:39:00,45.1,35.9,30.06,West,270,21.9,21.9,70,0.00,CLR,,0.04,0.0,WeatherDisplay:10.37,2017-11-18 20:39:00,
2017-11-18 14:44:00,45.1,35.9,30.06,WNW,292,17.3,17.3,70,0.00,CLR,,0.04,0.0,WeatherDisplay:10.37,2017-11-18 20:44:00,
2017-11-18 14:49:00,45.3,35.4,30.09,West,270,24.2,24.2,68,0.00,CLR,,0.04,0.0,WeatherDisplay:10.37,2017-11-18 20:49:00,
2017-11-18 14:54:00,45.1,34.8,30.09,West,270,21.9,21.9,67,0.00,CLR,,0.04,0.0,WeatherDisplay:10.37,2017-11-18 20:54:00,
2017-11-18 14:59:00,45.3,35.0,30.09,NW,315,11.8,11.8,67,0.00,CLR,,0.04,0.0,WeatherDisplay:10.37,2017-11-18 20:59:00,
2017-11-18 15:04:00,45.3,34.2,30.06,NW,315,13.8,13.8,65,0.00,CLR,,0.04,0.0,WeatherDisplay:10.37,2017-11-18 21:04:00,
2017-11-18 15:09:00,45.5,33.6,30.06,NW,315,13.2,13.2,63,0.00,CLR,,0.04,0.0,WeatherDisplay:10.37,2017-11-18 21:09:00,
2017-11-18 15:14:00,45.5,32.8,30.06,WNW,292,8.1,8.1,61,0.00,CLR,,0.04,0.0,WeatherDisplay:10.37,2017-11-18 21:14:00,
2017-11-18 15:19:00,45.7,32.6,30.06,NNW,338,8.1,8.1,60,0.00,CLR,,0.04,0.0,WeatherDisplay:10.37,2017-11-18 21:19:00,
2017-11-18 15:20:00,45.7,32.6,30.06,WNW,292,4.6,4.6,60,0.00,CLR,,0.04,0.0,WeatherDisplay:10.37,2017-11-18 21:20:00,
2017-11-18 15:25:00,46.4,31.5,30.06,WNW,292,8.1,8.1,56,0.00,CLR,,0.04,0.0,WeatherDisplay:10.37,2017-11-18 21:25:00,
2017-11-18 15:30:00,46.9,32.5,30.06,NW,315,12.7,12.7,57,0.00,CLR,,0.04,0.0,WeatherDisplay:10.37,2017-11-18 21:30:00,
2017-11-18 15:35:00,46.6,31.3,30.06,WNW,292,10.4,10.4,55,0.00,CLR,,0.04,0.0,WeatherDisplay:10.37,2017-11-18 21:35:00,
2017-11-18 15:40:00,46.8,31.0,30.06,West,270,12.7,12.7,54,0.00,CLR,,0.04,0.0,WeatherDisplay:10.37,2017-11-18 21:40:00,
2017-11-18 15:45:00,47.3,31.5,30.06,NW,315,8.1,8.1,54,0.00,CLR,,0.04,0.0,WeatherDisplay:10.37,2017-11-18 21:45:00,
2017-11-18 15:50:00,47.3,31.0,30.06,West,270,13.8,13.8,53,0.00,CLR,,0.04,0.0,WeatherDisplay:10.37,2017-11-18 21:50:00,
2017-11-18 15:55:00,47.5,30.7,30.06,WNW,292,5.8,5.8,52,0.00,CLR,,0.04,0.0,WeatherDisplay:10.37,2017-11-18 21:55:00,
2017-11-18 16:00:00,47.5,29.7,30.06,WNW,292,9.2,9.2,50,0.00,CLR,,0.04,0.0,WeatherDisplay:10.37,2017-11-18 22:00:00,